createdAt,value
2022-10-23T05:23:41.186Z,55.53
2022-10-23T05:26:07.546Z,55.61
2022-10-23T05:28:33.955Z,55.50
2022-10-23T05:31:02.552Z,55.72
2022-10-23T05:33:29.878Z,55.63
2022-10-23T05:35:56.479Z,55.37
2022-10-23T05:38:23.170Z,55.59
2022-10-23T05:40:51.119Z,55.63
2022-10-23T05:43:17.634Z,55.71
2022-10-23T05:45:43.985Z,55.48
2022-10-23T05:48:22.468Z,55.65
2022-10-23T05:50:56.734Z,55.59
2022-10-23T05:53:23.059Z,55.63
2022-10-23T05:55:49.406Z,55.88
2022-10-23T05:58:15.731Z,55.90
2022-10-23T06:00:42.063Z,55.35
2022-10-23T06:03:08.406Z,55.63
2022-10-23T06:05:34.834Z,55.68
2022-10-23T06:08:01.265Z,55.38
2022-10-23T06:10:27.931Z,55.73
2022-10-23T06:12:54.307Z,56.36
2022-10-23T06:15:20.679Z,56.79
2022-10-23T06:17:47.092Z,56.80
2022-10-23T06:20:13.495Z,57.31
2022-10-23T06:22:40.035Z,57.00
2022-10-23T06:25:06.908Z,57.36
2022-10-23T06:27:33.278Z,57.19
2022-10-23T06:29:59.647Z,56.85
2022-10-23T06:32:25.988Z,56.73
2022-10-23T06:34:52.360Z,56.70
2022-10-23T06:37:18.864Z,56.63
2022-10-23T06:39:45.256Z,56.51
2022-10-23T06:42:12.093Z,56.27
2022-10-23T06:44:38.566Z,56.44
2022-10-23T06:47:05.108Z,56.56
2022-10-23T06:49:31.520Z,55.99
2022-10-23T06:51:57.867Z,56.08
2022-10-23T06:54:24.217Z,55.93
2022-10-23T06:56:51.224Z,55.79
2022-10-23T06:59:17.601Z,55.33
2022-10-23T07:01:44.237Z,55.35
2022-10-23T07:04:13.611Z,55.22
2022-10-23T07:06:40.369Z,54.87
2022-10-23T07:09:06.944Z,55.11
2022-10-23T07:11:33.315Z,54.93
2022-10-23T07:13:59.713Z,54.93
2022-10-23T07:16:26.176Z,54.81
2022-10-23T07:18:59.569Z,54.32
2022-10-23T07:21:26.732Z,54.69
2022-10-23T07:23:53.072Z,54.15
2022-10-23T07:26:19.607Z,54.26
2022-10-23T07:28:46.738Z,54.18
2022-10-23T07:31:13.345Z,54.22
2022-10-23T07:33:39.873Z,54.25
2022-10-23T07:36:06.884Z,54.30
2022-10-23T07:38:33.553Z,54.09
2022-10-23T07:40:59.980Z,54.17
2022-10-23T07:43:26.767Z,54.44
2022-10-23T07:45:53.593Z,54.05
2022-10-23T07:48:21.155Z,54.26
2022-10-23T07:50:47.566Z,54.23
2022-10-23T07:53:19.083Z,53.99
2022-10-23T07:55:52.348Z,54.25
2022-10-23T07:58:18.689Z,53.93
2022-10-23T08:00:45.470Z,54.11
2022-10-23T08:03:12.795Z,54.14
2022-10-23T08:05:39.185Z,54.03
2022-10-23T08:08:08.571Z,53.93
2022-10-23T08:10:35.171Z,54.09
2022-10-23T08:13:01.509Z,53.93
2022-10-23T08:15:27.985Z,54.03
2022-10-23T08:17:54.377Z,53.80
2022-10-23T08:20:20.692Z,54.12
2022-10-23T08:22:47.045Z,53.71
2022-10-23T08:25:13.460Z,53.78
2022-10-23T08:27:39.983Z,53.97
2022-10-23T08:30:06.592Z,53.87
2022-10-23T08:32:32.949Z,53.92
2022-10-23T08:34:59.297Z,53.99
2022-10-23T08:37:25.653Z,53.87
2022-10-23T08:39:53.347Z,53.86
2022-10-23T08:42:21.983Z,53.70
2022-10-23T08:45:27.324Z,53.92
2022-10-23T08:47:55.900Z,53.62
2022-10-23T08:53:23.561Z,53.66
2022-10-23T08:55:55.662Z,53.31
2022-10-23T08:58:34.756Z,53.49
2022-10-23T09:01:02.195Z,53.42
2022-10-23T09:03:28.626Z,53.25
2022-10-23T09:06:15.247Z,53.76
2022-10-23T09:08:44.451Z,53.31
2022-10-23T09:11:40.506Z,53.71
2022-10-23T09:14:26.806Z,53.43
2022-10-23T09:17:03.493Z,53.43
2022-10-23T09:19:31.293Z,53.43
2022-10-23T09:21:58.186Z,53.59
2022-10-23T09:24:26.534Z,53.65
2022-10-23T09:26:53.896Z,53.79
2022-10-23T09:29:25.150Z,53.87
2022-10-23T09:31:52.926Z,53.83
2022-10-23T09:34:21.004Z,53.69
2022-10-23T09:36:49.412Z,53.77
2022-10-23T09:39:42.070Z,53.27
2022-10-23T09:42:21.731Z,53.06
2022-10-23T09:44:49.255Z,53.23
2022-10-23T09:47:20.621Z,53.32
2022-10-23T09:49:48.763Z,53.01
2022-10-23T09:52:16.698Z,52.90
2022-10-23T09:54:50.828Z,53.07
2022-10-23T09:57:29.508Z,53.01
2022-10-23T10:00:01.122Z,53.11
2022-10-23T10:02:32.329Z,52.87
2022-10-23T10:04:59.083Z,52.83
2022-10-23T10:07:32.291Z,52.80
2022-10-23T10:10:01.175Z,52.82
2022-10-23T10:12:37.742Z,52.75
2022-10-23T10:15:04.172Z,52.79
2022-10-23T10:17:35.112Z,52.87
2022-10-23T10:20:20.367Z,52.67
2022-10-23T10:23:04.083Z,52.77
2022-10-23T10:25:40.044Z,52.53
2022-10-23T10:28:15.268Z,52.76
2022-10-23T10:31:01.917Z,52.80
2022-10-23T10:33:33.584Z,52.83
2022-10-23T10:36:12.269Z,53.17
2022-10-23T10:38:44.939Z,53.14
2022-10-23T10:41:20.324Z,53.33
2022-10-23T10:44:12.939Z,53.21
2022-10-23T10:46:46.714Z,53.05
2022-10-23T10:49:18.824Z,53.04
2022-10-23T10:51:45.156Z,53.02
2022-10-23T10:54:20.676Z,53.23
2022-10-23T10:56:47.790Z,53.04
2022-10-23T10:59:17.605Z,53.40
2022-10-23T11:01:52.220Z,53.19
2022-10-23T11:04:26.485Z,52.55
2022-10-23T11:06:54.186Z,53.05
2022-10-23T11:09:21.727Z,52.77
2022-10-23T11:11:48.794Z,52.74
2022-10-23T11:14:22.574Z,52.40
2022-10-23T11:16:53.187Z,52.42
2022-10-23T11:19:19.531Z,52.21
2022-10-23T11:22:04.409Z,52.41
2022-10-23T11:24:46.707Z,52.29
2022-10-23T11:27:34.448Z,52.38
2022-10-23T11:30:18.039Z,52.92
2022-10-23T11:33:02.890Z,53.18
2022-10-23T11:35:30.879Z,52.13
2022-10-23T11:37:59.075Z,52.60
2022-10-23T11:40:25.732Z,52.60
2022-10-23T11:42:52.175Z,51.87
2022-10-23T11:45:32.671Z,51.50
2022-10-23T11:48:02.779Z,51.55
2022-10-23T11:50:44.468Z,51.70
2022-10-23T11:53:24.613Z,50.91
2022-10-23T11:56:19.549Z,50.95
2022-10-23T11:58:52.846Z,49.87
2022-10-23T12:01:19.645Z,50.90
2022-10-23T12:03:51.150Z,50.28
2022-10-23T12:06:28.500Z,50.61
2022-10-23T12:08:58.833Z,50.70
2022-10-23T12:11:39.458Z,50.37
2022-10-23T12:14:25.201Z,50.56
2022-10-23T12:16:51.581Z,50.63
2022-10-23T12:19:20.687Z,50.26
2022-10-23T12:21:47.416Z,49.97
2022-10-23T12:24:28.937Z,50.15
2022-10-23T12:27:01.745Z,50.26
2022-10-23T12:29:28.309Z,50.04
2022-10-23T12:32:03.985Z,50.41
2022-10-23T12:34:48.725Z,49.72
2022-10-23T12:37:36.509Z,49.87
2022-10-23T12:40:07.092Z,50.20
2022-10-23T12:42:33.866Z,50.19
2022-10-23T12:45:02.034Z,50.27
2022-10-23T12:47:29.781Z,49.79
2022-10-23T12:49:56.423Z,49.79
2022-10-23T12:52:25.354Z,49.07
2022-10-23T12:54:52.083Z,48.75
2022-10-23T12:57:25.910Z,49.41
2022-10-23T12:59:55.487Z,49.46
2022-10-23T13:02:22.787Z,49.47
2022-10-23T13:04:50.868Z,49.24
2022-10-23T13:07:19.009Z,49.18
2022-10-23T13:09:45.632Z,49.29
2022-10-23T13:12:19.829Z,49.05
2022-10-23T13:15:04.872Z,49.10
2022-10-23T13:17:45.397Z,49.28
2022-10-23T13:20:18.078Z,49.42
2022-10-23T13:22:46.336Z,49.15
2022-10-23T13:25:26.690Z,49.11
2022-10-23T13:28:03.892Z,49.42
2022-10-23T13:30:32.497Z,49.24
2022-10-23T13:32:59.760Z,49.09
2022-10-23T13:35:26.248Z,49.25
2022-10-23T13:37:52.649Z,49.34
2022-10-23T13:40:26.444Z,49.21
2022-10-23T13:42:54.273Z,49.29
2022-10-23T13:45:22.536Z,49.13
2022-10-23T13:47:49.030Z,49.38
2022-10-23T13:50:15.578Z,49.58
2022-10-23T13:52:42.044Z,49.25
2022-10-23T13:55:14.308Z,49.36
2022-10-23T13:57:40.908Z,49.20
2022-10-23T14:00:07.988Z,49.15
2022-10-23T14:02:34.408Z,49.50
2022-10-23T14:05:00.924Z,49.56
2022-10-23T14:07:27.349Z,49.13
2022-10-23T14:09:53.759Z,49.15
2022-10-23T14:12:20.186Z,49.14
2022-10-23T14:14:51.069Z,49.58
2022-10-23T14:17:17.849Z,49.52
2022-10-23T14:19:44.279Z,49.20
2022-10-23T14:22:10.729Z,49.44
2022-10-23T14:24:37.494Z,48.47
2022-10-23T14:27:04.001Z,48.59
2022-10-23T14:29:30.439Z,48.82
2022-10-23T14:31:56.898Z,49.10
2022-10-23T14:34:23.308Z,49.39
2022-10-23T14:36:51.100Z,48.82
2022-10-23T14:39:30.251Z,48.98
2022-10-23T14:41:56.674Z,49.00
2022-10-23T14:44:23.136Z,49.09
2022-10-23T14:46:49.526Z,49.34
2022-10-23T14:49:16.034Z,49.37
2022-10-23T14:51:42.402Z,49.49
2022-10-23T14:54:08.939Z,49.39
2022-10-23T14:56:40.046Z,49.35
2022-10-23T14:59:07.936Z,49.50
2022-10-23T15:01:36.262Z,49.51
2022-10-23T15:04:02.782Z,49.01
2022-10-23T15:06:29.225Z,49.48
2022-10-23T15:08:55.766Z,49.14
2022-10-23T15:11:23.314Z,49.36
2022-10-23T15:13:50.038Z,49.45
2022-10-23T15:16:16.751Z,49.51
2022-10-23T15:18:43.172Z,49.46
2022-10-23T15:21:09.960Z,49.36
2022-10-23T15:23:38.413Z,49.28
2022-10-23T15:26:07.055Z,49.13
2022-10-23T15:28:34.016Z,49.45
2022-10-23T15:31:00.422Z,49.35
2022-10-23T15:33:27.297Z,49.42
2022-10-23T15:35:54.158Z,49.05
2022-10-23T15:38:20.604Z,49.22
2022-10-23T15:40:47.117Z,49.28
2022-10-23T15:43:14.135Z,48.75
2022-10-23T15:45:40.991Z,48.79
2022-10-23T15:48:07.745Z,48.51
2022-10-23T15:50:34.318Z,48.92
2022-10-23T15:53:00.840Z,48.86
2022-10-23T15:55:27.358Z,48.67
2022-10-23T15:57:54.720Z,48.91
2022-10-23T16:00:21.326Z,48.93
2022-10-23T16:02:47.999Z,48.81
2022-10-23T16:05:14.609Z,49.01
2022-10-23T16:07:41.035Z,49.05
2022-10-23T16:10:07.681Z,49.03
2022-10-23T16:12:34.129Z,48.90
2022-10-23T16:15:00.555Z,49.14
2022-10-23T16:17:26.973Z,49.11
2022-10-23T16:19:53.325Z,48.61
2022-10-23T16:22:19.790Z,48.98
2022-10-23T16:24:46.150Z,48.82
2022-10-23T16:27:13.422Z,48.42
2022-10-23T16:29:39.814Z,48.57
2022-10-23T16:32:06.219Z,48.46
2022-10-23T16:34:32.615Z,48.41
2022-10-23T16:36:59.114Z,48.42
2022-10-23T16:39:25.574Z,48.82
2022-10-23T16:41:51.986Z,48.77
2022-10-23T16:44:18.516Z,48.76
2022-10-23T16:46:44.962Z,48.58
2022-10-23T16:49:11.484Z,48.47
2022-10-23T16:51:38.065Z,48.24
2022-10-23T16:54:04.485Z,48.76
2022-10-23T16:56:31.109Z,48.89
2022-10-23T17:01:27.279Z,48.98
2022-10-23T17:03:55.779Z,48.63
2022-10-23T17:06:23.830Z,48.58
2022-10-23T17:08:50.693Z,48.59
2022-10-23T17:11:21.766Z,48.67
2022-10-23T17:13:52.517Z,48.82
2022-10-23T17:16:26.393Z,48.85
2022-10-23T17:18:52.918Z,48.75
2022-10-23T17:21:20.938Z,48.69
2022-10-23T17:23:47.485Z,48.65
2022-10-23T17:26:15.298Z,48.73
2022-10-23T17:28:42.482Z,48.20
2022-10-23T17:31:16.627Z,48.23
2022-10-23T17:33:43.584Z,48.45
2022-10-23T17:36:10.834Z,48.57
2022-10-23T17:38:38.123Z,48.42
2022-10-23T17:41:05.096Z,48.64
2022-10-23T17:43:31.587Z,48.47
2022-10-23T17:45:58.167Z,48.71
2022-10-23T17:48:24.935Z,48.69
2022-10-23T17:51:00.219Z,48.18
2022-10-23T17:53:26.690Z,48.65
2022-10-23T17:55:53.204Z,48.56
2022-10-23T17:58:19.725Z,48.82
2022-10-23T18:00:46.312Z,48.67
2022-10-23T18:03:14.552Z,48.45
2022-10-23T18:05:44.174Z,48.14
2022-10-23T18:08:10.624Z,48.67
2022-10-23T18:10:37.191Z,48.40
2022-10-23T18:13:03.700Z,48.45
2022-10-23T18:15:30.113Z,48.60
2022-10-23T18:17:56.531Z,48.34
2022-10-23T18:20:22.959Z,47.56
2022-10-23T18:22:49.508Z,48.22
2022-10-23T18:25:15.940Z,48.47
2022-10-23T18:27:43.032Z,48.72
2022-10-23T18:30:09.747Z,48.15
2022-10-23T18:32:36.184Z,48.87
2022-10-23T18:35:02.944Z,48.74
2022-10-23T18:37:32.822Z,48.78
2022-10-23T18:40:00.373Z,48.69
2022-10-23T18:42:26.901Z,48.81
2022-10-23T18:44:53.364Z,49.01
2022-10-23T18:47:19.827Z,49.02
2022-10-23T18:49:46.349Z,49.10
2022-10-23T18:52:12.932Z,49.24
2022-10-23T18:54:39.365Z,49.14
2022-10-23T18:57:05.792Z,49.21
2022-10-23T18:59:32.180Z,49.15
2022-10-23T19:01:58.746Z,49.94
2022-10-23T19:04:25.264Z,49.39
2022-10-23T19:06:52.391Z,50.03
2022-10-23T19:09:19.716Z,49.72
2022-10-23T19:11:49.075Z,49.76
2022-10-23T19:14:15.574Z,49.75
2022-10-23T19:16:47.309Z,50.10
2022-10-23T19:19:21.525Z,50.66
2022-10-23T19:21:49.937Z,50.81
2022-10-23T19:24:20.942Z,50.55
2022-10-23T19:26:48.098Z,51.40
2022-10-23T19:29:16.652Z,50.49
2022-10-23T19:31:48.854Z,51.36
2022-10-23T19:34:16.609Z,50.88
2022-10-23T19:36:43.093Z,50.68
2022-10-23T19:39:09.669Z,50.86
2022-10-23T19:41:36.035Z,51.61
2022-10-23T19:44:02.485Z,51.07
2022-10-23T19:46:28.893Z,51.05
2022-10-23T19:48:55.330Z,51.43
2022-10-23T19:51:21.705Z,51.74
2022-10-23T19:53:48.225Z,52.94
2022-10-23T19:56:14.729Z,52.19
2022-10-23T19:58:41.187Z,52.17
2022-10-23T20:01:08.928Z,52.76
2022-10-23T20:03:35.439Z,52.25
2022-10-23T20:06:01.892Z,53.48
2022-10-23T20:08:32.544Z,53.29
2022-10-23T20:11:00.720Z,52.25
2022-10-23T20:13:27.400Z,52.40
2022-10-23T20:15:53.912Z,52.10
2022-10-23T20:18:20.380Z,52.29
2022-10-23T20:20:46.810Z,52.07
2022-10-23T20:23:13.223Z,51.81
2022-10-23T20:25:39.680Z,52.73
2022-10-23T20:28:08.229Z,52.56
2022-10-23T20:30:41.330Z,52.85
2022-10-23T20:33:08.116Z,52.96
2022-10-23T20:35:38.252Z,53.06
2022-10-23T20:38:04.686Z,52.53
2022-10-23T20:40:31.254Z,52.71
2022-10-23T20:42:57.731Z,53.15
2022-10-23T20:45:24.190Z,52.75
2022-10-23T20:47:50.627Z,53.19
2022-10-23T20:50:17.199Z,52.91
2022-10-23T20:52:43.711Z,52.95
2022-10-23T20:55:10.188Z,53.02
2022-10-23T20:57:36.647Z,52.83
2022-10-23T21:00:05.663Z,53.00
2022-10-23T21:02:33.249Z,52.89
2022-10-23T21:04:59.735Z,53.34
2022-10-23T21:07:27.212Z,53.08
2022-10-23T21:09:53.624Z,53.32
2022-10-23T21:12:20.068Z,53.54
2022-10-23T21:14:46.461Z,53.07
2022-10-23T21:17:16.943Z,53.48
2022-10-23T21:19:43.345Z,53.24
2022-10-23T21:22:09.759Z,53.29
2022-10-23T21:24:36.212Z,53.51
2022-10-23T21:27:02.644Z,53.46
2022-10-23T21:29:29.032Z,53.43
2022-10-23T21:31:56.205Z,53.59
2022-10-23T21:34:23.499Z,53.67
2022-10-23T21:39:36.332Z,53.41
2022-10-23T21:42:02.827Z,53.34
2022-10-23T21:44:29.295Z,53.16
2022-10-23T21:46:55.754Z,54.61
2022-10-23T21:49:22.352Z,54.10
2022-10-23T21:51:48.902Z,53.89
2022-10-23T21:54:15.401Z,53.50
2022-10-23T21:56:43.740Z,54.23
2022-10-23T21:59:13.353Z,54.56
2022-10-23T22:01:41.232Z,53.87
2022-10-23T22:04:07.775Z,54.14
2022-10-23T22:06:34.173Z,53.41
2022-10-23T22:09:00.573Z,54.97
2022-10-23T22:11:27.724Z,53.93
2022-10-23T22:13:55.876Z,54.65
2022-10-23T22:16:22.482Z,53.89
2022-10-23T22:18:48.913Z,54.39
2022-10-23T22:21:26.038Z,54.07
2022-10-23T22:23:54.402Z,55.48
2022-10-23T22:26:23.981Z,53.82
2022-10-23T22:28:51.877Z,54.20
2022-10-23T22:31:19.949Z,55.09
2022-10-23T22:33:46.406Z,54.69
2022-10-23T22:36:12.921Z,55.04
2022-10-23T22:38:39.622Z,54.83
2022-10-23T22:41:06.402Z,54.82
2022-10-23T22:43:32.799Z,55.49
2022-10-23T22:46:06.438Z,55.99
2022-10-23T22:48:33.478Z,55.19
2022-10-23T22:50:59.987Z,55.88
2022-10-23T22:53:26.914Z,55.65
2022-10-23T22:55:54.214Z,55.45
2022-10-23T22:58:20.903Z,55.32
2022-10-23T23:00:47.732Z,54.76
2022-10-23T23:03:14.410Z,55.28
2022-10-23T23:08:28.742Z,54.64
2022-10-23T23:10:58.194Z,55.15
2022-10-23T23:13:25.407Z,55.49
2022-10-23T23:15:51.898Z,55.16
2022-10-23T23:18:18.366Z,55.29
2022-10-23T23:20:44.840Z,56.89
2022-10-23T23:23:12.542Z,56.91
2022-10-23T23:25:41.399Z,57.04
2022-10-23T23:28:08.065Z,56.76
2022-10-23T23:30:34.798Z,55.86
2022-10-23T23:33:01.271Z,56.26
2022-10-23T23:35:29.434Z,55.19
2022-10-23T23:37:55.852Z,56.10
2022-10-23T23:40:22.594Z,55.56
2022-10-23T23:42:49.089Z,55.90
2022-10-23T23:45:15.497Z,55.04
2022-10-23T23:47:42.142Z,55.67
2022-10-23T23:50:09.191Z,55.49
2022-10-23T23:52:35.511Z,56.23
2022-10-23T23:55:01.906Z,56.06
2022-10-23T23:57:28.247Z,55.67
2022-10-23T23:59:54.610Z,56.13
